Time;durP1;ratioP1;P1;durP2;ratioP2;P2;SDS_P1;SDS_P2;PMS_P1;PMS_P2;Temp;Humidity;BMP_temperature;BMP_pressure;BME280_temperature;BME280_humidity;BME280_pressure;Samples;Min_cycle;Max_cycle;Signal;HPM_P1;HPM_P2
2023/12/15 00:00:50;;;;;;;;;102.67;86.33;;;;;1.88;100.00;99786.47;6282555;20;3694031;-42
2023/12/15 00:03:20;;;;;;;;;106.00;85.33;;;;;1.68;100.00;99789.59;6281084;20;3690036;-41
2023/12/15 00:05:50;;;;;;;;;103.00;79.50;;;;;1.98;100.00;99795.94;6282435;20;3700269;-41
2023/12/15 00:08:20;;;;;;;;;101.00;77.00;;;;;1.97;100.00;99795.97;6280248;20;3683778;-41
2023/12/15 00:10:51;;;;;;;;;101.33;74.67;;;;;1.78;100.00;99792.03;6280307;20;3684723;-42
2023/12/15 00:13:20;;;;;;;;;100.33;80.67;;;;;1.76;100.00;99807.94;6281656;20;3668074;-41
2023/12/15 00:15:50;;;;;;;;;97.67;77.67;;;;;1.71;100.00;99805.44;6283255;20;3651410;-42
2023/12/15 00:18:21;;;;;;;;;111.67;91.33;;;;;1.68;100.00;99804.59;6313012;20;3682544;-42
2023/12/15 00:20:51;;;;;;;;;104.33;81.33;;;;;1.61;100.00;99811.84;6281283;20;3697156;-41
2023/12/15 00:23:20;;;;;;;;;105.00;88.67;;;;;1.58;100.00;99803.06;6282883;20;3678807;-41
2023/12/15 00:25:51;;;;;;;;;105.33;88.33;;;;;1.40;100.00;99810.53;6283404;20;3680487;-43
2023/12/15 00:28:20;;;;;;;;;99.33;84.00;;;;;1.44;100.00;99811.34;6282458;20;3671190;-42
2023/12/15 00:30:50;;;;;;;;;104.00;83.67;;;;;1.64;100.00;99821.47;6280780;20;3691981;-43
2023/12/15 00:33:20;;;;;;;;;98.33;79.33;;;;;1.72;100.00;99817.75;6284386;20;3667959;-42
2023/12/15 00:35:50;;;;;;;;;89.67;72.67;;;;;1.82;100.00;99826.34;6312747;20;3634634;-43
2023/12/15 00:38:19;;;;;;;;;96.33;74.33;;;;;1.60;100.00;99822.44;6315363;20;3654411;-41
2023/12/15 00:40:49;;;;;;;;;101.33;74.00;;;;;1.82;100.00;99828.09;6280123;20;3668434;-43
2023/12/15 00:43:19;;;;;;;;;95.00;69.00;;;;;1.65;100.00;99831.16;6282308;20;3676076;-42
2023/12/15 00:45:49;;;;;;;;;87.67;65.67;;;;;1.62;100.00;99831.22;6280963;20;3639831;-41
2023/12/15 00:48:19;;;;;;;;;84.33;63.67;;;;;2.05;100.00;99841.66;6315199;20;3637782;-41
2023/12/15 00:50:48;;;;;;;;;83.00;63.67;;;;;1.87;100.00;99843.00;6312447;20;2887774;-41
2023/12/15 00:53:19;;;;;;;;;94.33;73.67;;;;;1.74;100.00;99841.53;6316328;20;3649313;-43
2023/12/15 00:55:49;;;;;;;;;99.00;78.33;;;;;2.02;100.00;99852.31;6312006;20;3670034;-42
2023/12/15 00:58:19;;;;;;;;;91.67;70.00;;;;;2.05;100.00;99856.69;6280040;20;3653368;-43
2023/12/15 01:00:49;;;;;;;;;100.00;78.00;;;;;1.88;100.00;99855.31;6312102;20;3674269;-42
2023/12/15 01:03:19;;;;;;;;;99.33;78.00;;;;;1.52;100.00;99855.22;6282079;20;3691912;-41
2023/12/15 01:05:50;;;;;;;;;99.00;76.00;;;;;1.58;100.00;99856.00;6283065;20;3680440;-40
2023/12/15 01:08:20;;;;;;;;;93.67;72.33;;;;;1.59;100.00;99858.63;6279504;20;3649402;-42
2023/12/15 01:10:50;;;;;;;;;92.33;69.00;;;;;1.91;100.00;99868.47;6311905;20;3657526;-41
2023/12/15 01:13:20;;;;;;;;;94.33;76.00;;;;;1.23;100.00;99870.84;6312369;20;3648292;-40
2023/12/15 01:15:50;;;;;;;;;90.67;71.00;;;;;0.95;100.00;99871.41;6313562;20;3656526;-41
2023/12/15 01:18:19;;;;;;;;;94.00;71.67;;;;;0.96;100.00;99872.28;6313102;20;3650640;-41
2023/12/15 01:20:49;;;;;;;;;90.33;65.00;;;;;0.49;100.00;99869.63;6311837;20;3655542;-40
2023/12/15 01:23:19;;;;;;;;;94.00;69.00;;;;;0.70;100.00;99880.72;6313935;20;3661932;-41
2023/12/15 01:25:49;;;;;;;;;95.67;71.67;;;;;0.78;100.00;99878.78;6311680;20;3655480;-42
2023/12/15 01:28:18;;;;;;;;;97.00;72.67;;;;;0.86;100.00;99876.88;6312727;20;3657575;-42
2023/12/15 01:30:49;;;;;;;;;95.00;71.00;;;;;0.83;100.00;99877.81;6310374;20;3658577;-42
2023/12/15 01:33:18;;;;;;;;;88.33;67.00;;;;;0.77;100.00;99871.78;6279182;20;2882580;-42
2023/12/15 01:35:48;;;;;;;;;87.33;66.33;;;;;0.97;100.00;99880.16;6312719;20;3646079;-41
2023/12/15 01:38:18;;;;;;;;;93.33;70.67;;;;;1.23;100.00;99882.28;6312969;20;3647183;-42
2023/12/15 01:40:48;;;;;;;;;93.33;69.33;;;;;0.97;100.00;99877.53;6309581;20;3660681;-43
2023/12/15 01:43:18;;;;;;;;;91.00;67.00;;;;;1.25;100.00;99883.16;6310118;20;3640863;-41
2023/12/15 01:45:47;;;;;;;;;86.33;63.67;;;;;1.44;100.00;99886.28;6312391;20;3647089;-42
2023/12/15 01:48:31;;;;;;;;;79.33;62.00;;;;;1.42;100.00;99888.09;6313579;20;3635782;-41
2023/12/15 01:51:02;;;;;;;;;86.67;64.00;;;;;1.47;100.00;99887.97;6307416;20;3641932;-41
2023/12/15 01:53:31;;;;;;;;;77.33;59.33;;;;;1.48;100.00;99893.25;6310453;20;2892066;-41
2023/12/15 01:56:03;;;;;;;;;85.00;61.00;;;;;1.42;100.00;99898.69;6311300;20;3654414;-41
2023/12/15 01:58:33;;;;;;;;;83.67;62.67;;;;;1.44;100.00;99898.63;6309719;20;3653349;-40
2023/12/15 02:01:04;;;;;;;;;79.33;61.67;;;;;1.10;100.00;99899.31;6307260;20;2877455;-43
2023/12/15 02:03:35;;;;;;;;;78.50;63.00;;;;;1.15;100.00;99892.16;6312541;20;2867980;-44
2023/12/15 02:06:05;;;;;;;;;80.33;62.33;;;;;1.25;100.00;99891.06;6282277;20;2882686;-44
2023/12/15 02:08:34;;;;;;;;;77.50;57.50;;;;;1.14;100.00;99894.84;6310208;20;2883678;-41
2023/12/15 02:11:04;;;;;;;;;78.33;60.67;;;;;1.38;100.00;99901.41;6280349;20;2885848;-41
2023/12/15 02:13:34;;;;;;;;;81.67;62.00;;;;;1.31;100.00;99903.31;6312221;20;3634667;-42
2023/12/15 02:16:05;;;;;;;;;79.67;62.33;;;;;1.39;100.00;99909.31;6308409;20;2878461;-41
2023/12/15 02:18:33;;;;;;;;;77.00;60.50;;;;;1.23;100.00;99913.16;6310134;20;2888266;-42
2023/12/15 02:21:03;;;;;;;;;83.67;61.67;;;;;1.58;100.00;99911.56;6275830;20;2897380;-42
2023/12/15 02:23:34;;;;;;;;;175.75;138.25;;;;;1.68;100.00;99910.47;6314149;20;4479971;-43
2023/12/15 02:26:03;;;;;;;;;82.00;61.00;;;;;1.43;100.00;99915.41;6275418;20;2694086;-43
2023/12/15 02:28:33;;;;;;;;;80.00;60.00;;;;;1.00;100.00;99917.16;6313205;20;3648167;-41
2023/12/15 02:31:03;;;;;;;;;76.33;59.33;;;;;0.72;100.00;99931.75;6310045;20;3637821;-42
2023/12/15 02:33:33;;;;;;;;;75.00;58.67;;;;;1.20;100.00;99939.69;6311946;20;3628381;-42
2023/12/15 02:36:02;;;;;;;;;71.00;54.50;;;;;1.12;100.00;99937.19;6310139;20;2872123;-43
2023/12/15 02:38:31;;;;;;;;;77.50;59.00;;;;;1.31;100.00;99942.97;6281166;20;2880458;-41
2023/12/15 02:41:01;;;;;;;;;78.33;60.33;;;;;1.37;100.00;99940.22;6278176;20;2903569;-42
2023/12/15 02:43:30;;;;;;;;;78.00;60.00;;;;;1.36;100.00;99945.53;6313016;20;2883686;-48
2023/12/15 02:45:59;;;;;;;;;73.50;57.50;;;;;1.32;100.00;99939.44;6311938;20;2887769;-42
2023/12/15 02:48:28;;;;;;;;;72.00;57.00;;;;;0.87;100.00;99947.34;6281195;20;2873605;-43
2023/12/15 02:50:58;;;;;;;;;75.00;59.50;;;;;1.09;100.00;99946.03;6277907;20;2877597;-42
2023/12/15 02:53:29;;;;;;;;;87.67;66.67;;;;;1.43;100.00;99949.81;6278170;20;3653401;-43
2023/12/15 02:55:58;;;;;;;;;79.00;61.00;;;;;1.59;100.00;99950.38;6305811;20;2872214;-45
2023/12/15 02:58:28;;;;;;;;;83.67;62.00;;;;;1.38;100.00;99952.53;6306739;20;2900389;-44
2023/12/15 03:00:57;;;;;;;;;75.00;59.00;;;;;1.37;100.00;99957.84;6310943;20;2885739;-41
2023/12/15 03:03:26;;;;;;;;;76.00;58.50;;;;;1.53;100.00;99954.03;6280901;20;2878438;-43
2023/12/15 03:05:55;;;;;;;;;70.33;55.33;;;;;1.21;100.00;99965.22;6281010;20;2879460;-44
2023/12/15 03:08:27;;;;;;;;;78.00;57.00;;;;;1.15;100.00;99967.97;6311183;20;2875405;-42
2023/12/15 03:10:57;;;;;;;;;72.50;56.50;;;;;1.11;100.00;99969.81;6278596;20;2880529;-42
2023/12/15 03:13:28;;;;;;;;;79.00;63.00;;;;;1.42;100.00;99978.06;6279088;20;2868001;-42
2023/12/15 03:16:11;;;;;;;;;72.33;57.00;;;;;1.53;100.00;99978.69;6278167;20;2883631;-41
2023/12/15 03:18:40;;;;;;;;;72.00;59.00;;;;;1.74;100.00;99984.47;6309804;20;2875712;-43
2023/12/15 03:21:08;;;;;;;;;75.50;55.00;;;;;1.85;100.00;99982.47;6274006;20;2874234;-42
2023/12/15 03:23:40;;;;;;;;;71.00;56.00;;;;;1.94;100.00;99984.88;6277285;20;2859719;-41
2023/12/15 03:26:09;;;;;;;;;67.50;53.50;;;;;2.22;100.00;99992.25;6277745;20;2860803;-42
2023/12/15 03:28:41;;;;;;;;;70.00;53.50;;;;;1.37;100.00;99994.88;6279607;20;2861725;-45
2023/12/15 03:31:11;;;;;;;;;105.67;80.33;;;;;0.88;100.00;99999.31;6284804;20;3684700;-44
2023/12/15 03:33:41;;;;;;;;;136.50;109.25;;;;;0.85;100.00;99992.31;6284612;20;3716952;-41
2023/12/15 03:36:12;;;;;;;;;123.50;101.25;;;;;1.37;100.00;100006.38;6314714;20;3711850;-43
2023/12/15 03:38:41;;;;;;;;;112.67;97.00;;;;;1.72;100.00;99999.50;6279061;20;3695124;-43
2023/12/15 03:41:12;;;;;;;;;116.25;88.75;;;;;1.84;100.00;100001.88;6312117;20;3689982;-41
2023/12/15 03:43:42;;;;;;;;;104.67;84.33;;;;;1.38;100.00;100008.09;6280286;20;3693955;-44
2023/12/15 03:46:12;;;;;;;;;97.00;70.33;;;;;1.62;100.00;100005.88;6283243;20;3660665;-44
2023/12/15 03:48:42;;;;;;;;;110.33;92.00;;;;;1.66;100.00;100023.41;6314208;20;3670022;-44
2023/12/15 03:51:11;;;;;;;;;83.50;68.00;;;;;1.88;100.00;100029.19;6283802;20;2863826;-42
2023/12/15 03:53:41;;;;;;;;;93.67;72.00;;;;;1.70;100.00;100038.34;6282580;20;3644027;-41
2023/12/15 03:56:11;;;;;;;;;93.00;70.67;;;;;1.29;100.00;100032.06;6315640;20;3650254;-41
2023/12/15 03:58:40;;;;;;;;;91.67;69.67;;;;;1.89;100.00;100026.47;6315724;20;3649243;-41
2023/12/15 04:01:10;;;;;;;;;91.00;68.00;;;;;2.08;100.00;100034.03;6312233;20;3659708;-44
2023/12/15 04:03:40;;;;;;;;;85.33;65.67;;;;;2.06;100.00;100030.56;6309035;20;3644399;-44
2023/12/15 04:06:10;;;;;;;;;92.67;67.33;;;;;2.28;100.00;100039.78;6309569;20;3669557;-41
2023/12/15 04:08:43;;;;;;;;;90.33;68.00;;;;;2.37;100.00;100036.03;6283816;20;3647165;-43
2023/12/15 04:11:15;;;;;;;;;90.67;68.33;;;;;2.31;100.00;100039.72;6315295;20;3639811;-42
2023/12/15 04:13:46;;;;;;;;;77.67;61.00;;;;;2.52;100.00;100043.66;6314910;20;2870169;-41
2023/12/15 04:16:16;;;;;;;;;87.00;65.67;;;;;2.33;100.00;100043.19;6311830;20;3655488;-41
2023/12/15 04:18:45;;;;;;;;;83.00;64.67;;;;;2.26;100.00;100046.88;6314718;20;3623369;-45
2023/12/15 04:21:15;;;;;;;;;93.33;73.33;;;;;2.27;100.00;100056.59;6316657;20;3649366;-42
2023/12/15 04:23:45;;;;;;;;;97.33;75.67;;;;;1.99;100.00;100056.28;6314031;20;3675440;-41
2023/12/15 04:26:15;;;;;;;;;96.67;71.67;;;;;1.73;100.00;100062.97;6283471;20;3665904;-42
2023/12/15 04:28:47;;;;;;;;;95.33;69.67;;;;;1.60;100.00;100065.91;6314672;20;3663938;-41
2023/12/15 04:31:18;;;;;;;;;96.33;72.00;;;;;1.68;100.00;100079.84;6284226;20;3658634;-40
2023/12/15 04:33:47;;;;;;;;;87.33;66.33;;;;;1.30;100.00;100081.44;6312966;20;3647140;-41
2023/12/15 04:36:21;;;;;;;;;85.33;62.67;;;;;1.38;100.00;100083.94;6315353;20;3656587;-43
2023/12/15 04:38:51;;;;;;;;;89.67;65.33;;;;;1.94;100.00;100088.16;6313362;20;3663782;-40
2023/12/15 04:41:25;;;;;;;;;85.67;61.33;;;;;2.11;100.00;100093.13;6281089;20;3659619;-40
2023/12/15 04:43:55;;;;;;;;;89.00;67.33;;;;;2.18;100.00;100097.38;6313854;20;3659817;-41
2023/12/15 04:46:30;;;;;;;;;94.00;71.33;;;;;2.55;100.00;100098.38;6314313;20;3648573;-40
2023/12/15 04:49:00;;;;;;;;;88.67;63.67;;;;;2.57;100.00;100099.22;6315241;20;3661792;-41
2023/12/15 04:51:30;;;;;;;;;87.33;64.67;;;;;2.13;100.00;100108.97;6278638;20;3659617;-41
2023/12/15 04:53:59;;;;;;;;;80.67;61.67;;;;;2.43;100.00;100107.47;6314788;20;3633600;-43
2023/12/15 04:56:29;;;;;;;;;91.33;68.33;;;;;2.36;100.00;100111.16;6312542;20;3639841;-41
2023/12/15 04:58:59;;;;;;;;;82.33;60.33;;;;;2.53;100.00;100114.31;6313361;20;3650455;-40
2023/12/15 05:01:28;;;;;;;;;89.67;66.33;;;;;2.59;100.00;100114.19;6313736;20;3645307;-41
2023/12/15 05:03:58;;;;;;;;;87.33;67.00;;;;;2.33;100.00;100127.97;6310941;20;3632670;-42
2023/12/15 05:06:28;;;;;;;;;97.33;79.33;;;;;2.43;100.00;100128.69;6314899;20;3667978;-40
2023/12/15 05:08:57;;;;;;;;;98.00;75.67;;;;;2.41;100.00;100131.34;6280218;20;3666933;-41
2023/12/15 05:11:27;;;;;;;;;103.00;78.67;;;;;2.32;100.00;100141.28;6281303;20;3692048;-42
2023/12/15 05:13:57;;;;;;;;;96.67;71.67;;;;;2.33;100.00;100149.19;6280532;20;3671164;-42
2023/12/15 05:16:30;;;;;;;;;104.00;82.67;;;;;2.48;100.00;100147.13;6278983;20;3696120;-43
2023/12/15 05:19:00;;;;;;;;;104.33;77.67;;;;;2.98;100.00;100145.13;6277236;20;3701294;-43
2023/12/15 05:21:29;;;;;;;;;103.00;85.00;;;;;2.73;100.00;100142.16;6281719;20;3679422;-41
2023/12/15 05:23:59;;;;;;;;;95.33;70.00;;;;;2.90;100.00;100155.03;6275693;20;3669159;-40
2023/12/15 05:26:29;;;;;;;;;94.33;69.33;;;;;2.88;100.00;100146.25;6312891;20;3653454;-43
2023/12/15 05:28:59;;;;;;;;;79.33;60.67;;;;;2.98;100.00;100148.66;6312021;20;3644111;-42
2023/12/15 05:31:28;;;;;;;;;83.00;59.67;;;;;2.73;100.00;100144.81;6312994;20;3651457;-43
2023/12/15 05:33:58;;;;;;;;;69.00;53.00;;;;;2.94;100.00;100156.72;6312508;20;2870364;-41
2023/12/15 05:36:28;;;;;;;;;67.33;51.33;;;;;2.86;100.00;100165.69;6313020;20;2871158;-41
2023/12/15 05:38:59;;;;;;;;;67.67;49.33;;;;;2.50;100.00;100166.50;6312429;20;3624253;-41
2023/12/15 05:41:28;;;;;;;;;65.33;53.00;;;;;2.56;100.00;100187.59;6312021;20;2875427;-41
2023/12/15 05:43:58;;;;;;;;;66.00;53.00;;;;;2.83;100.00;100188.78;6311147;20;2847382;-41
2023/12/15 05:46:27;;;;;;;;;66.67;53.33;;;;;2.80;100.00;100197.66;6313132;20;2863856;-41
2023/12/15 05:48:57;;;;;;;;;69.33;52.33;;;;;2.68;100.00;100202.34;6313750;20;2879890;-41
2023/12/15 05:51:27;;;;;;;;;77.33;54.00;;;;;2.61;100.00;100204.28;6310196;20;3664888;-42
2023/12/15 05:53:56;;;;;;;;;57.00;43.50;;;;;2.84;100.00;100207.31;6311165;20;2858791;-41
2023/12/15 05:56:26;;;;;;;;;58.50;46.50;;;;;2.62;100.00;100213.97;6283745;20;2848237;-42
2023/12/15 05:58:55;;;;;;;;;56.50;46.50;;;;;2.80;100.00;100212.72;6283325;20;2866985;-41
2023/12/15 06:01:24;;;;;;;;;63.00;44.00;;;;;3.01;100.00;100221.97;6280311;20;2879429;-40
2023/12/15 06:03:52;;;;;;;;;59.50;48.00;;;;;3.02;100.00;100215.75;6277810;20;2495206;-41
2023/12/15 06:06:21;;;;;;;;;57.50;47.00;;;;;2.86;100.00;100223.19;6281631;20;2857703;-43
2023/12/15 06:08:51;;;;;;;;;62.00;47.50;;;;;2.93;100.00;100230.09;6278889;20;2861762;-44
2023/12/15 06:11:19;;;;;;;;;62.00;47.00;;;;;2.75;100.00;100241.09;6277054;20;2496184;-44
2023/12/15 06:13:49;;;;;;;;;68.33;50.33;;;;;2.79;100.00;100243.66;6279526;20;2883717;-42
2023/12/15 06:16:19;;;;;;;;;61.00;46.50;;;;;2.92;100.00;100251.34;6308574;20;2869025;-41
2023/12/15 06:18:49;;;;;;;;;64.67;48.33;;;;;2.53;100.00;100259.22;6281080;20;2877457;-41
2023/12/15 06:21:26;;;;;;;;;62.00;47.00;;;;;2.80;100.00;100263.97;6312458;20;2868125;-42
2023/12/15 06:23:56;;;;;;;;;53.50;45.50;;;;;2.36;100.00;100268.34;6279252;20;2860705;-43
2023/12/15 06:26:26;;;;;;;;;63.50;47.50;;;;;2.66;100.00;100278.38;6282508;20;2871137;-41
2023/12/15 06:28:55;;;;;;;;;65.50;48.00;;;;;2.50;100.00;100281.38;6279961;20;2862828;-44
2023/12/15 06:31:25;;;;;;;;;66.00;52.00;;;;;2.62;100.00;100285.53;6279738;20;2871105;-41
2023/12/15 06:33:55;;;;;;;;;65.00;49.50;;;;;2.77;100.00;100297.63;6312045;20;2853399;-42
2023/12/15 06:36:27;;;;;;;;;71.33;51.33;;;;;2.72;100.00;100300.38;6280216;20;3653385;-44
2023/12/15 06:38:59;;;;;;;;;73.67;53.00;;;;;2.75;100.00;100297.66;6310952;20;2892080;-42
2023/12/15 06:41:29;;;;;;;;;73.67;56.67;;;;;2.99;100.00;100309.53;6311584;20;2881627;-43
2023/12/15 06:43:58;;;;;;;;;66.00;52.00;;;;;2.89;100.00;100309.75;6312725;20;2879465;-41
2023/12/15 06:46:28;;;;;;;;;117.00;101.33;;;;;2.23;100.00;100306.56;6280694;20;3694604;-41
2023/12/15 06:48:59;;;;;;;;;77.33;58.33;;;;;2.08;100.00;100317.41;6281554;20;3642955;-41
2023/12/15 06:51:29;;;;;;;;;76.00;52.67;;;;;2.30;100.00;100326.75;6312676;20;3645133;-41
2023/12/15 06:53:59;;;;;;;;;78.67;55.00;;;;;1.89;100.00;100330.97;6311413;20;3633626;-41
2023/12/15 06:56:28;;;;;;;;;71.33;55.33;;;;;2.56;100.00;100343.97;6310994;20;2877469;-42
2023/12/15 06:58:58;;;;;;;;;71.00;52.00;;;;;2.72;100.00;100353.41;6310344;20;3638778;-41
2023/12/15 07:01:28;;;;;;;;;76.67;56.33;;;;;2.52;100.00;100344.94;6311998;20;3638314;-41
2023/12/15 07:03:57;;;;;;;;;71.67;52.33;;;;;2.84;100.00;100353.16;6307473;20;3646246;-41
2023/12/15 07:06:27;;;;;;;;;65.00;50.67;;;;;2.89;100.00;100361.00;6311990;20;2875370;-41
2023/12/15 07:08:58;;;;;;;;;66.67;51.00;;;;;3.04;100.00;100363.38;6311273;20;2877437;-41
2023/12/15 07:11:27;;;;;;;;;69.00;53.50;;;;;3.05;100.00;100369.53;6310806;20;2869074;-40
2023/12/15 07:13:56;;;;;;;;;66.00;46.67;;;;;3.22;100.00;100370.09;6281713;20;2877575;-42
2023/12/15 07:16:26;;;;;;;;;72.33;54.67;;;;;3.11;100.00;100372.09;6306327;20;2884686;-41
2023/12/15 07:18:56;;;;;;;;;70.67;51.67;;;;;3.05;100.00;100382.81;6309739;20;3627573;-43
2023/12/15 07:21:26;;;;;;;;;68.00;51.00;;;;;3.08;100.00;100382.75;6311505;20;2891989;-40
2023/12/15 07:23:56;;;;;;;;;71.33;53.33;;;;;2.94;100.00;100384.81;6309854;20;3632633;-44
2023/12/15 07:26:25;;;;;;;;;78.33;56.00;;;;;3.09;100.00;100397.78;6309988;20;3647517;-42
2023/12/15 07:28:55;;;;;;;;;69.67;53.00;;;;;3.10;100.00;100401.31;6309089;20;2871616;-43
2023/12/15 07:31:25;;;;;;;;;90.67;65.33;;;;;3.04;100.00;100403.16;6310848;20;3647139;-43
2023/12/15 07:33:54;;;;;;;;;83.00;65.00;;;;;3.20;100.00;100409.03;6309551;20;3638784;-43
2023/12/15 07:36:24;;;;;;;;;83.67;58.00;;;;;3.13;100.00;100407.41;6309986;20;3659735;-43
2023/12/15 07:38:53;;;;;;;;;75.67;53.33;;;;;3.22;100.00;100417.84;6310606;20;3641911;-42
2023/12/15 07:41:23;;;;;;;;;68.00;52.67;;;;;3.33;100.00;100416.78;6310054;20;2884686;-42
2023/12/15 07:43:53;;;;;;;;;73.00;55.00;;;;;3.35;100.00;100431.75;6308827;20;3634661;-45
2023/12/15 07:46:23;;;;;;;;;71.00;53.00;;;;;3.28;100.00;100433.66;6310194;20;3646248;-43
2023/12/15 07:48:53;;;;;;;;;90.67;66.00;;;;;3.25;100.00;100444.31;6310209;20;3659139;-41
2023/12/15 07:51:22;;;;;;;;;93.33;70.00;;;;;3.01;100.00;100447.47;6277148;20;3671093;-43
2023/12/15 07:53:51;;;;;;;;;81.00;64.00;;;;;2.96;100.00;100463.44;6308716;20;2878369;-43
2023/12/15 07:56:27;;;;;;;;;75.00;54.33;;;;;3.30;100.00;100462.81;6277599;20;2889006;-47
2023/12/15 07:58:57;;;;;;;;;73.67;55.33;;;;;3.41;100.00;100466.13;6309195;20;3631697;-43
2023/12/15 08:01:27;;;;;;;;;79.33;57.00;;;;;3.45;100.00;100470.50;6308894;20;3650261;-42
2023/12/15 08:03:56;;;;;;;;;94.00;68.00;;;;;3.49;100.00;100471.28;6309863;20;3657537;-42
2023/12/15 08:06:27;;;;;;;;;90.00;66.33;;;;;3.45;100.00;100474.91;6309027;20;3653396;-42
2023/12/15 08:08:57;;;;;;;;;79.33;60.00;;;;;3.54;100.00;100480.03;6306924;20;3624746;-43
2023/12/15 08:11:27;;;;;;;;;73.33;56.00;;;;;3.63;100.00;100485.16;6305392;20;3634669;-43
2023/12/15 08:13:56;;;;;;;;;78.33;58.33;;;;;3.15;100.00;100487.00;6311109;20;2879606;-43
2023/12/15 08:16:26;;;;;;;;;76.00;56.33;;;;;3.20;100.00;100498.41;6310127;20;3640987;-43
2023/12/15 08:18:56;;;;;;;;;73.67;56.00;;;;;3.37;100.00;100500.72;6314784;20;2892040;-44
2023/12/15 08:21:26;;;;;;;;;73.00;55.67;;;;;3.67;100.00;100497.47;6314541;20;3633596;-42
2023/12/15 08:23:55;;;;;;;;;69.67;52.00;;;;;3.51;100.00;100499.56;6316131;20;3639894;-45
2023/12/15 08:26:27;;;;;;;;;74.67;53.00;;;;;3.59;100.00;100506.50;6315419;20;2892124;-43
2023/12/15 08:28:56;;;;;;;;;67.33;52.00;;;;;2.98;100.00;100508.53;6312561;20;3650624;-44
2023/12/15 08:31:26;;;;;;;;;64.00;50.50;;;;;2.84;100.00;100517.59;6314489;20;2863890;-45
2023/12/15 08:33:54;;;;;;;;;57.50;44.00;;;;;3.43;100.00;100522.72;6278831;20;2498190;-44
2023/12/15 08:36:24;;;;;;;;;72.33;56.00;;;;;3.73;100.00;100537.19;6284100;20;3632670;-44
2023/12/15 08:38:52;;;;;;;;;79.50;59.50;;;;;3.75;100.00;100531.84;6310204;20;2446071;-46
2023/12/15 08:41:21;;;;;;;;;78.33;59.67;;;;;3.60;100.00;100535.66;6282757;20;2871190;-46
2023/12/15 08:43:51;;;;;;;;;80.00;61.67;;;;;3.76;100.00;100540.69;6313911;20;3632626;-43
2023/12/15 08:46:21;;;;;;;;;104.00;87.33;;;;;3.63;100.00;100540.03;6314317;20;3680462;-42
2023/12/15 08:48:51;;;;;;;;;109.33;92.67;;;;;3.94;100.00;100546.50;6279255;20;3691924;-42
2023/12/15 08:51:20;;;;;;;;;87.00;65.67;;;;;3.73;100.00;100552.25;6278918;20;2879593;-44
2023/12/15 08:53:50;;;;;;;;;80.67;62.00;;;;;3.80;100.00;100556.53;6316289;20;3640134;-47
2023/12/15 08:56:19;;;;;;;;;85.67;66.00;;;;;3.60;100.00;100564.88;6315364;20;3626342;-42
2023/12/15 08:58:49;;;;;;;;;89.67;65.33;;;;;3.68;100.00;100565.59;6315277;20;3634630;-43
2023/12/15 09:01:19;;;;;;;;;79.00;62.67;;;;;3.99;100.00;100562.34;6314295;20;3633752;-43
2023/12/15 09:03:48;;;;;;;;;71.67;55.00;;;;;3.96;100.00;100570.38;6316041;20;3630512;-42
2023/12/15 09:06:18;;;;;;;;;82.00;65.00;;;;;4.20;100.00;100573.44;6314475;20;2875824;-43
2023/12/15 09:08:58;;;;;;;;;71.33;56.00;;;;;4.36;100.00;100574.84;6315944;20;2882784;-42
2023/12/15 09:11:27;;;;;;;;;79.67;61.00;;;;;4.22;100.00;100577.81;6315083;20;2884772;-44
2023/12/15 09:13:57;;;;;;;;;83.50;63.00;;;;;4.24;100.00;100576.00;6316738;20;3522206;-43
2023/12/15 09:16:27;;;;;;;;;82.33;58.33;;;;;4.30;100.00;100582.97;6313278;20;3650254;-42
2023/12/15 09:18:56;;;;;;;;;81.00;62.00;;;;;4.12;100.00;100587.75;6315250;20;3639851;-42
2023/12/15 09:21:26;;;;;;;;;90.67;66.00;;;;;4.26;100.00;100586.59;6316304;20;3643993;-43
2023/12/15 09:23:56;;;;;;;;;82.33;60.67;;;;;4.37;100.00;100597.88;6313991;20;3657975;-42
2023/12/15 09:26:27;;;;;;;;;83.00;65.33;;;;;4.44;100.00;100593.31;6280464;20;3630452;-44
2023/12/15 09:28:57;;;;;;;;;77.00;58.00;;;;;4.48;100.00;100598.53;6317098;20;3633617;-43
2023/12/15 09:31:26;;;;;;;;;87.00;68.33;;;;;4.47;100.00;100610.06;6314457;20;3634752;-43
2023/12/15 09:33:56;;;;;;;;;81.00;62.50;;;;;4.70;100.00;100614.88;6316665;20;3526507;-42
2023/12/15 09:36:26;;;;;;;;;83.67;63.67;;;;;4.54;100.00;100616.13;6315776;20;3629434;-43
2023/12/15 09:38:56;;;;;;;;;84.67;65.67;;;;;4.58;100.00;100618.69;6315090;20;3630619;-44
2023/12/15 09:41:28;;;;;;;;;88.00;67.67;;;;;4.70;100.00;100632.63;6316098;20;3654473;-42
2023/12/15 09:43:59;;;;;;;;;90.33;63.33;;;;;4.59;100.00;100630.22;6314654;20;3642036;-43
2023/12/15 09:46:30;;;;;;;;;94.00;73.00;;;;;4.69;100.00;100630.88;6279598;20;3674244;-42
2023/12/15 09:49:02;;;;;;;;;99.00;86.33;;;;;4.66;100.00;100638.91;6277506;20;3669069;-43
2023/12/15 09:51:36;;;;;;;;;99.67;87.33;;;;;4.72;100.00;100641.47;6281940;20;3655930;-43
2023/12/15 09:54:05;;;;;;;;;94.00;73.00;;;;;4.39;100.00;100643.91;6279062;20;3675241;-43
2023/12/15 09:56:35;;;;;;;;;89.33;65.00;;;;;4.49;100.00;100645.47;6279440;20;3644008;-43
2023/12/15 09:59:06;;;;;;;;;85.00;64.33;;;;;4.66;100.00;100644.22;6310499;20;3637842;-43
2023/12/15 10:01:37;;;;;;;;;84.67;62.33;;;;;4.85;100.00;100650.91;6313892;20;3647127;-43
2023/12/15 10:04:07;;;;;;;;;75.00;60.00;;;;;4.75;100.00;100657.34;6314080;20;2882803;-43
2023/12/15 10:06:38;;;;;;;;;77.33;58.33;;;;;4.63;100.00;100653.16;6312254;20;3643044;-40
2023/12/15 10:09:12;;;;;;;;;84.00;61.33;;;;;4.66;100.00;100660.19;6281640;20;3650226;-43
2023/12/15 10:11:46;;;;;;;;;83.33;64.33;;;;;4.66;100.00;100660.19;6280635;20;2878461;-42
2023/12/15 10:14:16;;;;;;;;;83.67;62.00;;;;;4.87;100.00;100662.41;6315048;20;3633569;-40
2023/12/15 10:16:47;;;;;;;;;90.00;67.00;;;;;4.88;100.00;100665.94;6310945;20;3669015;-45
2023/12/15 10:19:18;;;;;;;;;92.67;66.33;;;;;4.99;100.00;100672.75;6283281;20;3654461;-41
2023/12/15 10:21:47;;;;;;;;;83.00;64.00;;;;;4.58;100.00;100671.00;6281954;20;2872147;-43
2023/12/15 10:24:21;;;;;;;;;85.00;65.67;;;;;4.88;100.00;100674.78;6282628;20;2882690;-43
2023/12/15 10:26:51;;;;;;;;;85.33;61.00;;;;;4.97;100.00;100692.31;6310103;20;3641948;-43
2023/12/15 10:29:25;;;;;;;;;82.00;60.67;;;;;4.95;100.00;100688.81;6314563;20;3636787;-41
2023/12/15 10:31:55;;;;;;;;;79.00;58.33;;;;;4.83;100.00;100688.19;6316337;20;3628401;-43
2023/12/15 10:34:27;;;;;;;;;79.67;60.00;;;;;4.87;100.00;100694.34;6316060;20;3644000;-45
2023/12/15 10:36:57;;;;;;;;;77.00;58.67;;;;;5.12;100.00;100704.41;6312361;20;3633619;-43
2023/12/15 10:39:27;;;;;;;;;78.67;59.00;;;;;5.15;100.00;100704.34;6309202;20;3623166;-43
2023/12/15 10:41:59;;;;;;;;;82.33;63.00;;;;;5.14;100.00;100703.47;6313062;20;3636737;-42
2023/12/15 10:44:31;;;;;;;;;93.00;73.00;;;;;5.11;100.00;100710.63;6311487;20;3676316;-42
2023/12/15 10:47:02;;;;;;;;;85.33;63.67;;;;;5.14;100.00;100711.47;6278962;20;3638874;-44
2023/12/15 10:49:33;;;;;;;;;95.00;79.67;;;;;5.14;100.00;100718.56;6312668;20;3672171;-43
2023/12/15 10:52:15;;;;;;;;;84.00;65.00;;;;;5.14;100.00;100718.56;6281618;20;3642968;-41
2023/12/15 10:54:46;;;;;;;;;88.00;68.00;;;;;5.09;100.00;100723.13;6311273;20;3668086;-43
2023/12/15 10:57:16;;;;;;;;;90.33;74.67;;;;;4.59;100.00;100721.50;6310449;20;3651331;-43
2023/12/15 10:59:45;;;;;;;;;143.00;114.00;;;;;4.31;100.00;100720.28;6272201;20;1960953;-42
2023/12/15 11:02:18;;;;;;;;;153.25;129.50;;;;;4.38;100.00;100725.47;6279678;20;4508541;-43
2023/12/15 11:04:49;;;;;;;;;142.00;111.00;;;;;4.66;100.00;100730.25;6278093;20;4475304;-43
2023/12/15 11:07:24;;;;;;;;;104.50;90.00;;;;;4.48;100.00;100728.81;6271471;20;1966387;-43